Time;durP1;ratioP1;P1;durP2;ratioP2;P2;SDS_P1;SDS_P2;PMS_P1;PMS_P2;Temp;Humidity;BMP_temperature;BMP_pressure;BME280_temperature;BME280_humidity;BME280_pressure;Samples;Min_cycle;Max_cycle;Signal;HPM_P1;HPM_P2
2024/04/23 00:01:52;;;;;;;5.75;3.92;;;5.70;70.30;;;;;;5468820;26;20026;-63
2024/04/23 00:04:18;;;;;;;5.97;4.10;;;5.60;70.30;;;;;;5471685;26;19998;-63
2024/04/23 00:06:57;;;;;;;4.18;3.75;;;5.60;70.40;;;;;;5445086;26;20031;-64
2024/04/23 00:09:23;;;;;;;4.97;3.65;;;5.50;70.60;;;;;;5479654;26;20078;-61
2024/04/23 00:11:49;;;;;;;5.45;3.80;;;5.50;70.60;;;;;;5478064;26;20061;-63
2024/04/23 00:14:15;;;;;;;4.97;3.80;;;5.50;70.80;;;;;;5469169;26;19998;-64
2024/04/23 00:16:40;;;;;;;4.05;3.58;;;5.50;70.90;;;;;;5472475;26;19998;-63
2024/04/23 00:19:06;;;;;;;5.55;4.18;;;5.40;70.80;;;;;;5471606;26;20508;-63
2024/04/23 00:21:31;;;;;;;4.07;3.67;;;5.40;70.90;;;;;;5462694;26;19995;-64
2024/04/23 00:23:57;;;;;;;5.50;3.90;;;5.40;71.00;;;;;;5474123;26;20061;-63
2024/04/23 00:26:23;;;;;;;4.57;3.78;;;5.40;71.20;;;;;;5474313;26;19990;-64
2024/04/23 00:28:48;;;;;;;3.75;3.42;;;5.30;71.20;;;;;;5474748;26;20002;-64
2024/04/23 00:31:14;;;;;;;4.88;3.97;;;5.30;71.20;;;;;;5470543;26;20002;-62
2024/04/23 00:33:39;;;;;;;4.03;3.58;;;5.30;71.30;;;;;;5481841;26;20000;-64
2024/04/23 00:36:05;;;;;;;7.65;3.75;;;5.30;71.30;;;;;;5478480;26;19994;-63
2024/04/23 00:38:31;;;;;;;6.20;3.60;;;5.30;71.30;;;;;;5476150;26;20010;-63
2024/04/23 00:40:56;;;;;;;5.63;3.90;;;5.30;71.40;;;;;;5471794;26;19998;-64
2024/04/23 00:43:22;;;;;;;4.88;3.80;;;5.30;71.50;;;;;;5473460;26;20030;-63
2024/04/23 00:45:52;;;;;;;5.70;3.85;;;5.30;71.50;;;;;;5475764;26;20333;-64
2024/04/23 00:48:19;;;;;;;5.20;4.20;;;5.30;71.50;;;;;;5474083;26;20006;-63
2024/04/23 00:50:45;;;;;;;5.00;4.18;;;5.20;72.40;;;;;;5475593;26;20013;-63
2024/04/23 00:53:13;;;;;;;5.90;4.03;;;5.20;71.50;;;;;;5478656;26;19994;-64
2024/04/23 00:55:39;;;;;;;5.50;4.43;;;5.20;71.50;;;;;;5472108;26;20035;-63
2024/04/23 00:58:05;;;;;;;5.10;3.85;;;5.20;71.60;;;;;;5473913;26;20010;-64
2024/04/23 01:00:31;;;;;;;5.50;4.05;;;5.10;71.70;;;;;;5473667;26;21787;-64
2024/04/23 01:03:00;;;;;;;5.28;4.40;;;5.10;71.70;;;;;;5472825;26;20002;-64
2024/04/23 01:05:26;;;;;;;5.18;4.68;;;5.10;71.90;;;;;;5437348;26;20047;-63
2024/04/23 01:07:52;;;;;;;6.93;5.20;;;5.10;71.90;;;;;;5480509;26;20010;-63
2024/04/23 01:10:18;;;;;;;7.05;5.30;;;5.10;72.00;;;;;;5473205;26;20007;-64
2024/04/23 01:12:43;;;;;;;6.07;5.35;;;5.10;72.00;;;;;;5477467;26;20462;-63
2024/04/23 01:15:12;;;;;;;8.05;6.28;;;5.00;72.00;;;;;;5467532;26;20009;-63
2024/04/23 01:17:39;;;;;;;8.60;6.43;;;5.00;72.20;;;;;;5480715;26;20005;-63
2024/04/23 01:20:08;;;;;;;8.63;6.85;;;5.00;72.20;;;;;;5478666;26;20009;-64
2024/04/23 01:22:43;;;;;;;8.95;7.25;;;5.00;72.20;;;;;;5470415;26;19998;-64
2024/04/23 01:25:18;;;;;;;9.07;7.47;;;5.00;72.40;;;;;;5476514;26;20017;-63
2024/04/23 01:27:44;;;;;;;8.23;6.32;;;5.00;72.40;;;;;;5474449;26;19998;-62
2024/04/23 01:30:11;;;;;;;8.52;6.50;;;5.00;72.40;;;;;;5479514;26;20465;-64
2024/04/23 01:32:39;;;;;;;12.57;7.18;;;5.00;72.40;;;;;;5467483;26;20379;-63
2024/04/23 01:35:06;;;;;;;8.18;6.78;;;5.00;72.60;;;;;;5464951;26;20002;-63
2024/04/23 01:37:34;;;;;;;8.13;6.80;;;5.00;72.60;;;;;;5470664;26;20014;-63
2024/04/23 01:40:01;;;;;;;9.20;7.13;;;4.90;72.70;;;;;;5473962;26;19997;-63
2024/04/23 01:42:28;;;;;;;10.20;7.47;;;4.90;72.70;;;;;;5478637;26;19991;-63
2024/04/23 01:44:54;;;;;;;8.65;7.07;;;4.90;72.80;;;;;;5480260;26;20059;-63
2024/04/23 01:47:20;;;;;;;9.52;7.00;;;4.90;72.70;;;;;;5470111;26;19990;-63
2024/04/23 01:49:45;;;;;;;12.35;8.05;;;4.90;73.00;;;;;;5469897;26;20023;-64
2024/04/23 01:52:11;;;;;;;9.88;7.30;;;4.80;74.00;;;;;;5473623;26;20366;-63
2024/04/23 01:54:37;;;;;;;8.57;6.80;;;4.80;73.10;;;;;;5463530;26;19994;-63
2024/04/23 01:57:06;;;;;;;9.73;7.00;;;4.80;73.30;;;;;;5475625;26;20063;-64
2024/04/23 01:59:32;;;;;;;9.25;7.18;;;4.80;73.30;;;;;;5467354;26;19990;-63
2024/04/23 02:02:00;;;;;;;9.05;6.28;;;4.70;73.30;;;;;;5473334;26;20112;-63
2024/04/23 02:04:27;;;;;;;8.38;6.30;;;4.70;73.40;;;;;;5469869;26;20001;-63
2024/04/23 02:06:52;;;;;;;8.57;6.53;;;4.70;73.50;;;;;;5471995;26;20009;-63
2024/04/23 02:09:18;;;;;;;7.47;6.05;;;4.70;73.60;;;;;;5474106;26;20470;-62
2024/04/23 02:11:44;;;;;;;7.93;5.70;;;4.70;73.70;;;;;;5478151;26;20005;-63
2024/04/23 02:14:10;;;;;;;7.60;5.88;;;4.70;73.60;;;;;;5473839;26;20012;-64
2024/04/23 02:16:36;;;;;;;6.97;5.90;;;4.70;73.60;;;;;;5474026;26;20005;-63
2024/04/23 02:19:01;;;;;;;7.38;5.90;;;4.70;73.70;;;;;;5477777;26;20006;-63
2024/04/23 02:21:27;;;;;;;7.18;5.47;;;4.70;73.60;;;;;;5473166;26;20390;-63
2024/04/23 02:23:52;;;;;;;7.15;5.35;;;4.70;73.70;;;;;;5471932;26;20070;-63
2024/04/23 02:26:18;;;;;;;8.38;5.72;;;4.70;73.80;;;;;;5475562;26;19994;-63
2024/04/23 02:28:43;;;;;;;8.23;5.93;;;4.70;74.00;;;;;;5478840;26;20529;-63
2024/04/23 02:31:10;;;;;;;8.10;6.07;;;4.70;73.80;;;;;;5480615;26;20067;-62
2024/04/23 02:33:36;;;;;;;6.65;5.78;;;4.70;73.80;;;;;;5473292;26;20533;-63
2024/04/23 02:36:01;;;;;;;7.35;5.40;;;4.70;73.80;;;;;;5475115;26;20034;-63
2024/04/23 02:38:27;;;;;;;9.07;6.03;;;4.70;73.80;;;;;;5478604;26;20664;-62
2024/04/23 02:40:53;;;;;;;6.80;5.55;;;4.70;73.80;;;;;;5482176;26;19998;-63
2024/04/23 02:43:19;;;;;;;6.50;5.28;;;4.70;73.80;;;;;;5477598;26;20075;-63
2024/04/23 02:45:44;;;;;;;8.80;5.63;;;4.70;73.80;;;;;;5475360;26;20014;-62
2024/04/23 02:48:10;;;;;;;7.30;5.50;;;4.70;73.80;;;;;;5477639;26;20039;-63
2024/04/23 02:50:36;;;;;;;8.07;5.63;;;4.60;73.80;;;;;;5473192;26;20383;-63
2024/04/23 02:53:01;;;;;;;7.40;5.63;;;4.60;73.80;;;;;;5473373;26;20005;-63
2024/04/23 02:55:27;;;;;;;6.45;5.32;;;4.60;73.80;;;;;;5473735;26;20068;-63
2024/04/23 02:57:52;;;;;;;8.23;5.80;;;4.60;73.80;;;;;;5474069;26;20457;-63
2024/04/23 03:00:18;;;;;;;7.63;5.53;;;4.60;73.90;;;;;;5476182;26;20009;-64
2024/04/23 03:02:43;;;;;;;6.78;5.43;;;4.60;74.10;;;;;;5472125;26;19991;-63
2024/04/23 03:05:09;;;;;;;7.78;5.65;;;4.50;74.00;;;;;;5478248;26;20009;-63
2024/04/23 03:07:35;;;;;;;7.38;6.13;;;4.50;74.00;;;;;;5477603;26;20329;-61
2024/04/23 03:10:00;;;;;;;7.00;5.57;;;4.50;74.20;;;;;;5470399;26;19999;-62
2024/04/23 03:12:26;;;;;;;8.75;5.72;;;4.50;74.10;;;;;;5470161;26;20051;-63
2024/04/23 03:14:51;;;;;;;8.65;5.80;;;4.50;74.10;;;;;;5477709;26;20006;-62
2024/04/23 03:17:17;;;;;;;8.23;5.97;;;4.50;74.20;;;;;;5470495;26;20031;-63
2024/04/23 03:19:43;;;;;;;8.02;6.25;;;4.40;74.10;;;;;;5476657;26;20021;-63
2024/04/23 03:22:09;;;;;;;9.75;6.47;;;4.40;74.10;;;;;;5467634;26;19991;-63
2024/04/23 03:24:34;;;;;;;8.35;6.50;;;4.40;74.20;;;;;;5458341;26;20349;-64
2024/04/23 03:27:00;;;;;;;12.52;5.93;;;4.40;74.10;;;;;;5476141;26;20006;-63
2024/04/23 03:29:26;;;;;;;9.32;5.93;;;4.40;74.30;;;;;;5472067;26;20021;-63
2024/04/23 03:32:03;;;;;;;8.30;6.32;;;4.40;74.30;;;;;;5470943;26;20066;-63
2024/04/23 03:34:29;;;;;;;7.05;5.93;;;4.40;74.50;;;;;;5468842;26;20769;-63
2024/04/23 03:36:54;;;;;;;10.95;6.65;;;4.40;74.50;;;;;;5467681;26;20013;-63
2024/04/23 03:39:20;;;;;;;9.52;6.60;;;4.40;74.50;;;;;;5469309;26;20013;-63
2024/04/23 03:41:56;;;;;;;7.78;5.72;;;4.40;74.50;;;;;;5473310;26;19993;-63
2024/04/23 03:44:22;;;;;;;10.48;6.22;;;4.40;74.60;;;;;;5465672;26;20005;-63
2024/04/23 03:46:47;;;;;;;7.63;5.88;;;4.40;74.50;;;;;;5473215;26;20002;-63
2024/04/23 03:49:13;;;;;;;9.02;6.20;;;4.40;74.50;;;;;;5469960;26;19995;-63
2024/04/23 03:51:38;;;;;;;10.00;6.95;;;4.40;74.40;;;;;;5468305;26;19998;-63
2024/04/23 03:54:04;;;;;;;10.02;6.80;;;4.40;74.50;;;;;;5468482;26;20680;-62
2024/04/23 03:56:29;;;;;;;8.52;6.93;;;4.40;74.50;;;;;;5466757;26;20010;-63
2024/04/23 03:58:55;;;;;;;11.65;6.85;;;4.40;74.60;;;;;;5468630;26;20002;-63
2024/04/23 04:01:21;;;;;;;10.40;6.93;;;4.40;74.50;;;;;;5468858;26;20004;-62
2024/04/23 04:06:30;;;;;;;10.48;7.65;;;4.40;74.40;;;;;;5469044;26;20048;-63
2024/04/23 04:08:56;;;;;;;12.55;8.00;;;4.40;74.40;;;;;;5411455;26;20002;-62
2024/04/23 04:11:22;;;;;;;11.35;8.40;;;4.30;74.30;;;;;;5465493;26;20006;-62
2024/04/23 04:13:47;;;;;;;12.52;8.40;;;4.30;74.30;;;;;;5471955;26;19998;-63
2024/04/23 04:16:13;;;;;;;13.95;9.85;;;4.30;74.20;;;;;;5438370;26;20004;-63
2024/04/23 04:18:38;;;;;;;14.00;9.45;;;4.30;74.20;;;;;;5473563;26;19990;-64
2024/04/23 04:21:04;;;;;;;17.88;10.60;;;4.30;74.20;;;;;;5475371;26;19998;-63
2024/04/23 04:23:30;;;;;;;14.18;9.48;;;4.30;74.30;;;;;;5473840;26;19995;-63
2024/04/23 04:25:56;;;;;;;12.52;8.98;;;4.20;74.20;;;;;;5476285;26;20076;-63
2024/04/23 04:28:22;;;;;;;14.52;8.70;;;4.20;74.50;;;;;;5436402;26;20455;-64
2024/04/23 04:30:47;;;;;;;12.73;8.70;;;4.10;74.60;;;;;;5476231;26;20018;-63
2024/04/23 04:33:13;;;;;;;11.70;8.00;;;4.10;74.50;;;;;;5480781;26;20442;-63
2024/04/23 04:35:38;;;;;;;10.95;7.55;;;4.10;74.40;;;;;;5466696;26;20032;-62
2024/04/23 04:38:04;;;;;;;11.18;7.93;;;4.10;74.60;;;;;;5465218;26;19994;-63
2024/04/23 04:40:31;;;;;;;8.77;7.22;;;4.10;74.80;;;;;;5472080;26;20017;-63
2024/04/23 04:42:57;;;;;;;13.27;8.07;;;4.10;74.90;;;;;;5448558;26;20013;-63
2024/04/23 04:45:23;;;;;;;17.60;9.02;;;4.10;74.90;;;;;;5481452;26;20009;-63
2024/04/23 04:47:48;;;;;;;9.75;6.97;;;4.10;74.80;;;;;;5478164;26;20005;-62
2024/04/23 04:50:14;;;;;;;12.15;8.38;;;4.10;74.80;;;;;;5479818;26;20453;-63
2024/04/23 04:52:39;;;;;;;12.65;8.73;;;4.10;75.00;;;;;;5479373;26;19998;-62
2024/04/23 04:55:05;;;;;;;10.07;7.40;;;4.10;74.90;;;;;;5475445;26;20480;-62
2024/04/23 04:57:32;;;;;;;10.10;7.15;;;4.10;74.90;;;;;;5481484;26;20017;-63
2024/04/23 04:59:58;;;;;;;9.88;7.60;;;4.10;75.00;;;;;;5474357;26;19994;-63
2024/04/23 05:02:24;;;;;;;9.55;7.18;;;4.10;75.90;;;;;;5480164;26;20016;-63
2024/04/23 05:04:50;;;;;;;11.55;7.65;;;4.10;75.00;;;;;;5465636;26;19998;-63
2024/04/23 05:07:15;;;;;;;12.18;7.93;;;4.20;75.20;;;;;;5480688;26;20404;-64
2024/04/23 05:09:42;;;;;;;10.63;7.43;;;4.20;75.10;;;;;;5475797;26;20006;-63
2024/04/23 05:12:08;;;;;;;11.73;8.13;;;4.20;75.20;;;;;;5479684;26;19991;-63
2024/04/23 05:14:34;;;;;;;10.73;7.80;;;4.20;75.20;;;;;;5478843;26;19994;-63
2024/04/23 05:16:59;;;;;;;9.38;7.32;;;4.20;75.20;;;;;;5469676;26;20002;-63
2024/04/23 05:19:25;;;;;;;8.52;6.15;;;4.30;75.20;;;;;;5475054;26;19998;-63
2024/04/23 05:21:51;;;;;;;9.63;7.32;;;4.30;75.00;;;;;;5480648;26;21497;-63
2024/04/23 05:24:16;;;;;;;10.15;6.95;;;4.30;74.80;;;;;;5465582;26;20078;-63
2024/04/23 05:26:42;;;;;;;8.02;6.53;;;4.30;75.00;;;;;;5477655;26;20002;-62
2024/04/23 05:29:07;;;;;;;9.63;7.25;;;4.30;74.90;;;;;;5477977;26;20099;-63
2024/04/23 05:34:17;;;;;;;8.88;5.55;;;4.30;75.00;;;;;;5471988;26;20028;-62
2024/04/23 05:36:43;;;;;;;10.50;6.28;;;4.30;75.00;;;;;;5476935;26;20441;-64
2024/04/23 05:39:08;;;;;;;9.05;6.38;;;4.30;75.10;;;;;;5477356;26;20074;-62
2024/04/23 05:41:34;;;;;;;9.15;6.18;;;4.40;75.00;;;;;;5480644;26;19994;-62
2024/04/23 05:44:00;;;;;;;10.73;6.72;;;4.40;75.00;;;;;;5475251;26;19994;-63
2024/04/23 05:46:26;;;;;;;9.80;6.38;;;4.40;75.00;;;;;;5464317;26;20005;-63
2024/04/23 05:49:29;;;;;;;9.05;6.30;;;4.40;75.20;;;;;;5480142;26;20316;-63
2024/04/23 05:52:32;;;;;;;9.02;6.10;;;4.40;75.30;;;;;;5475414;26;20017;-63
2024/04/23 05:55:27;;;;;;;8.68;6.20;;;4.40;75.20;;;;;;5479000;26;20074;-63
2024/04/23 05:57:53;;;;;;;8.57;5.95;;;4.50;75.20;;;;;;5463810;26;19991;-61
2024/04/23 06:00:19;;;;;;;10.35;6.10;;;4.50;75.00;;;;;;5478101;26;20017;-62
2024/04/23 06:02:44;;;;;;;10.00;6.45;;;4.50;75.00;;;;;;5479368;26;20475;-62
2024/04/23 06:05:10;;;;;;;8.05;6.18;;;4.50;75.00;;;;;;5475423;26;20044;-63
2024/04/23 06:07:35;;;;;;;10.15;7.07;;;4.50;75.00;;;;;;5477403;26;20009;-63
2024/04/23 06:10:01;;;;;;;9.00;6.65;;;4.50;74.90;;;;;;5478380;26;20501;-62
2024/04/23 06:12:26;;;;;;;7.85;6.03;;;4.60;74.60;;;;;;5472460;26;20341;-62
2024/04/23 06:14:52;;;;;;;9.52;7.00;;;4.50;74.70;;;;;;5478366;26;20146;-63
2024/04/23 06:17:34;;;;;;;8.20;6.53;;;4.50;74.80;;;;;;5480147;26;20420;-63
2024/04/23 06:20:00;;;;;;;10.20;7.70;;;4.50;74.90;;;;;;5466207;26;20001;-63
2024/04/23 06:22:28;;;;;;;10.13;6.82;;;4.60;74.90;;;;;;5472122;26;19999;-63
2024/04/23 06:24:55;;;;;;;8.63;6.53;;;4.50;74.80;;;;;;5460782;26;20010;-63
2024/04/23 06:27:22;;;;;;;9.38;7.20;;;4.60;75.20;;;;;;5462429;26;20004;-62
2024/04/23 06:30:08;;;;;;;7.90;6.07;;;4.60;75.20;;;;;;5478426;26;20009;-62
2024/04/23 06:32:38;;;;;;;8.35;6.28;;;4.60;75.00;;;;;;5470216;26;20280;-63
2024/04/23 06:35:04;;;;;;;9.82;6.88;;;4.60;74.80;;;;;;5476192;26;20009;-63
2024/04/23 06:37:30;;;;;;;10.38;6.47;;;4.60;74.60;;;;;;5472759;26;19990;-62
2024/04/23 06:39:56;;;;;;;9.05;6.60;;;4.60;74.50;;;;;;5478535;26;20271;-62
2024/04/23 06:42:22;;;;;;;8.63;6.40;;;4.60;74.50;;;;;;5474763;26;20468;-63
2024/04/23 06:44:48;;;;;;;11.82;6.68;;;4.70;74.60;;;;;;5476302;26;20429;-63
2024/04/23 06:47:13;;;;;;;10.70;6.22;;;4.70;74.60;;;;;;5477496;26;20074;-62
2024/04/23 06:49:40;;;;;;;9.07;5.57;;;4.70;74.50;;;;;;5465658;26;20000;-63
2024/04/23 06:52:08;;;;;;;12.07;6.30;;;4.70;74.50;;;;;;5479786;26;19998;-61
2024/04/23 06:54:34;;;;;;;6.45;5.45;;;4.70;74.50;;;;;;5471910;26;19991;-63
2024/04/23 06:57:00;;;;;;;10.80;6.60;;;4.70;74.50;;;;;;5480110;26;20005;-61
2024/04/23 06:59:25;;;;;;;8.27;6.03;;;4.70;75.30;;;;;;5411660;26;20006;-62
2024/04/23 07:01:51;;;;;;;6.97;5.93;;;4.70;74.50;;;;;;5482324;26;19998;-63
2024/04/23 07:04:17;;;;;;;8.25;6.45;;;4.80;74.60;;;;;;5481916;26;20436;-62
2024/04/23 07:06:43;;;;;;;9.00;6.10;;;4.80;74.70;;;;;;5482515;26;19994;-63
2024/04/23 07:09:10;;;;;;;8.60;6.35;;;4.80;74.70;;;;;;5477194;26;20040;-62
2024/04/23 07:11:37;;;;;;;9.10;6.18;;;4.90;74.80;;;;;;5463537;26;20330;-62
2024/04/23 07:14:03;;;;;;;8.77;6.38;;;4.90;74.80;;;;;;5472021;26;20013;-63
2024/04/23 07:16:29;;;;;;;10.57;6.72;;;4.90;74.80;;;;;;5479384;26;19990;-63
2024/04/23 07:18:55;;;;;;;10.55;6.45;;;5.00;74.90;;;;;;5481564;26;20043;-63
2024/04/23 07:21:20;;;;;;;10.25;7.13;;;5.00;75.10;;;;;;5482539;26;21716;-62
2024/04/23 07:23:47;;;;;;;10.02;6.45;;;5.10;75.20;;;;;;5473117;26;20072;-62
2024/04/23 07:26:12;;;;;;;8.73;6.20;;;5.20;75.30;;;;;;5472534;26;20325;-62
2024/04/23 07:28:38;;;;;;;9.45;5.93;;;5.20;75.20;;;;;;5479290;26;20030;-62
2024/04/23 07:31:03;;;;;;;8.88;6.75;;;5.30;75.00;;;;;;5481418;26;20013;-61
2024/04/23 07:33:29;;;;;;;8.07;6.43;;;5.30;74.60;;;;;;5481620;26;19998;-62
2024/04/23 07:35:54;;;;;;;8.13;6.32;;;5.40;74.60;;;;;;5482336;26;20002;-62
2024/04/23 07:38:20;;;;;;;9.32;6.75;;;5.40;74.60;;;;;;5474871;26;20369;-62
2024/04/23 07:40:48;;;;;;;8.95;6.45;;;5.50;74.60;;;;;;5476946;26;19994;-62
2024/04/23 07:43:14;;;;;;;8.23;6.72;;;5.50;74.40;;;;;;5444371;26;20002;-62
2024/04/23 07:45:40;;;;;;;9.35;6.78;;;5.60;74.60;;;;;;5479253;26;20459;-62
2024/04/23 07:48:06;;;;;;;9.20;7.07;;;5.70;74.50;;;;;;5482434;26;20062;-63
2024/04/23 07:50:32;;;;;;;8.68;6.43;;;5.70;74.60;;;;;;5477551;26;20009;-62
2024/04/23 07:53:02;;;;;;;9.15;6.68;;;5.80;74.60;;;;;;5479306;26;20066;-63
2024/04/23 07:55:28;;;;;;;8.00;6.57;;;5.80;74.50;;;;;;5481265;26;21277;-61
2024/04/23 07:57:54;;;;;;;9.18;6.55;;;5.90;74.40;;;;;;5482075;26;20440;-62
2024/04/23 08:00:21;;;;;;;9.20;6.45;;;6.00;74.40;;;;;;5475108;26;20013;-63
2024/04/23 08:02:52;;;;;;;8.38;6.90;;;6.00;74.30;;;;;;5464608;26;20008;-63
2024/04/23 08:05:18;;;;;;;8.80;6.45;;;6.00;73.80;;;;;;5463871;26;20038;-63
2024/04/23 08:07:43;;;;;;;10.10;7.03;;;6.10;74.00;;;;;;5471334;26;19994;-62
2024/04/23 08:10:11;;;;;;;8.27;6.85;;;6.20;74.00;;;;;;5455144;26;20022;-63
2024/04/23 08:12:38;;;;;;;9.15;6.75;;;6.20;74.00;;;;;;5475824;26;20002;-63
2024/04/23 08:15:04;;;;;;;8.48;6.57;;;6.30;74.20;;;;;;5481208;26;20438;-63
2024/04/23 08:17:30;;;;;;;9.32;6.88;;;6.30;74.10;;;;;;5475130;26;20004;-63
2024/04/23 08:19:55;;;;;;;8.88;6.80;;;6.40;74.10;;;;;;5460041;26;20006;-62
2024/04/23 08:22:21;;;;;;;9.00;6.55;;;6.50;73.90;;;;;;5468062;26;20069;-62
2024/04/23 08:24:46;;;;;;;8.35;6.70;;;6.60;73.70;;;;;;5478462;26;20465;-63
2024/04/23 08:27:12;;;;;;;9.98;6.90;;;6.60;74.40;;;;;;5478318;26;20002;-62
2024/04/23 08:29:37;;;;;;;12.73;8.23;;;6.70;73.50;;;;;;5461443;26;20373;-62
2024/04/23 08:32:03;;;;;;;9.10;7.22;;;6.70;74.10;;;;;;5478888;26;20083;-61
2024/04/23 08:34:29;;;;;;;8.30;6.78;;;6.80;73.20;;;;;;5477503;26;20001;-63
2024/04/23 08:36:54;;;;;;;8.95;6.85;;;6.80;73.10;;;;;;5480609;26;19990;-63
2024/04/23 08:39:20;;;;;;;7.88;6.80;;;6.80;73.70;;;;;;5471732;26;20013;-63
2024/04/23 08:41:47;;;;;;;9.02;6.82;;;6.90;73.10;;;;;;5460252;26;19994;-63
2024/04/23 08:44:13;;;;;;;8.00;6.78;;;7.00;73.20;;;;;;5474467;26;20034;-63
2024/04/23 08:46:41;;;;;;;9.20;6.95;;;7.00;73.20;;;;;;5452937;26;19998;-63
2024/04/23 08:49:08;;;;;;;8.52;6.72;;;7.10;72.80;;;;;;5478414;26;20345;-63
2024/04/23 08:51:34;;;;;;;8.02;6.72;;;7.20;72.60;;;;;;5471678;26;20067;-63
2024/04/23 08:54:01;;;;;;;9.93;8.25;;;7.20;72.50;;;;;;5469003;26;19995;-63
2024/04/23 08:56:30;;;;;;;8.07;6.70;;;7.30;72.50;;;;;;5466312;26;20073;-63
2024/04/23 08:58:56;;;;;;;9.60;6.70;;;7.30;72.10;;;;;;5476671;26;20017;-63
2024/04/23 09:01:28;;;;;;;9.90;7.68;;;7.40;71.60;;;;;;5479508;26;20433;-63
2024/04/23 09:03:55;;;;;;;9.80;7.13;;;7.30;71.40;;;;;;5440078;26;19995;-62
2024/04/23 09:06:24;;;;;;;8.73;6.90;;;7.40;71.40;;;;;;5467303;26;20026;-63
2024/04/23 09:08:51;;;;;;;8.20;6.88;;;7.40;71.40;;;;;;5471364;26;19999;-62
2024/04/23 09:11:17;;;;;;;9.30;7.50;;;7.40;71.60;;;;;;5472883;26;20066;-62
2024/04/23 09:13:43;;;;;;;11.75;7.10;;;7.40;71.60;;;;;;5463219;26;20048;-63
2024/04/23 09:16:08;;;;;;;8.55;7.10;;;7.40;71.80;;;;;;5472393;26;19998;-63
2024/04/23 09:18:34;;;;;;;8.32;6.78;;;7.50;72.30;;;;;;5469118;26;20342;-63
2024/04/23 09:21:04;;;;;;;7.95;6.72;;;7.50;72.40;;;;;;5466035;26;20005;-61
2024/04/23 09:23:33;;;;;;;10.45;6.95;;;7.60;72.30;;;;;;5473224;26;20527;-64
2024/04/23 09:26:00;;;;;;;9.27;7.03;;;7.70;72.30;;;;;;5472229;26;19994;-63
2024/04/23 09:28:26;;;;;;;9.45;6.70;;;7.80;72.00;;;;;;5468405;26;20576;-62
2024/04/23 09:30:51;;;;;;;8.50;6.65;;;7.90;71.90;;;;;;5470556;26;20005;-63
2024/04/23 09:33:24;;;;;;;7.80;6.50;;;7.90;71.40;;;;;;5461709;26;19994;-64
2024/04/23 09:36:02;;;;;;;8.40;6.63;;;8.00;71.30;;;;;;5472388;26;20005;-63
2024/04/23 09:38:39;;;;;;;7.63;6.75;;;8.00;71.30;;;;;;5477183;26;20009;-63
2024/04/23 09:41:09;;;;;;;8.75;6.82;;;8.10;70.90;;;;;;5474397;26;19990;-63
2024/04/23 09:43:36;;;;;;;8.02;6.88;;;8.10;70.80;;;;;;5471293;26;20457;-64
2024/04/23 09:46:02;;;;;;;7.97;6.53;;;8.10;71.10;;;;;;5477828;26;20352;-62
2024/04/23 09:48:35;;;;;;;9.60;6.72;;;8.10;71.20;;;;;;5475517;26;20088;-63
2024/04/23 09:51:07;;;;;;;8.27;6.35;;;8.20;70.80;;;;;;5472399;26;20002;-63
2024/04/23 09:53:36;;;;;;;8.85;6.50;;;8.30;71.00;;;;;;5475942;26;20002;-63
2024/04/23 09:56:04;;;;;;;7.68;6.45;;;8.30;70.90;;;;;;5440271;26;20026;-63
2024/04/23 09:58:30;;;;;;;7.68;6.43;;;8.30;70.60;;;;;;5468050;26;21540;-63
2024/04/23 10:00:57;;;;;;;8.50;6.55;;;8.30;70.40;;;;;;5456222;26;19995;-64
2024/04/23 10:03:24;;;;;;;7.93;6.28;;;8.30;70.30;;;;;;5472054;26;20066;-63
2024/04/23 10:05:51;;;;;;;7.07;6.35;;;8.30;70.20;;;;;;5476936;26;20006;-63
2024/04/23 10:08:33;;;;;;;7.75;6.88;;;8.30;70.20;;;;;;5476315;26;20068;-63
2024/04/23 10:11:01;;;;;;;6.95;6.05;;;8.30;69.80;;;;;;5461748;26;20014;-64
2024/04/23 10:13:32;;;;;;;6.65;5.40;;;8.30;69.90;;;;;;5457402;26;20440;-63
2024/04/23 10:16:16;;;;;;;7.45;5.97;;;8.30;69.70;;;;;;5469592;26;20071;-63
2024/04/23 10:19:14;;;;;;;7.55;6.20;;;8.20;69.70;;;;;;5464019;26;20026;-64
2024/04/23 10:21:42;;;;;;;7.15;6.40;;;8.20;69.50;;;;;;5411103;26;20055;-63
2024/04/23 10:24:12;;;;;;;8.88;6.22;;;8.20;69.90;;;;;;5479711;26;20009;-63
2024/04/23 10:26:44;;;;;;;7.15;6.25;;;8.20;69.90;;;;;;5475922;26;20456;-63
2024/04/23 10:29:13;;;;;;;7.30;6.30;;;8.20;69.80;;;;;;5466771;26;19995;-63
2024/04/23 10:31:41;;;;;;;6.88;5.93;;;8.20;69.90;;;;;;5459023;26;19990;-63
2024/04/23 10:34:08;;;;;;;7.28;5.93;;;8.10;69.70;;;;;;5479891;26;20002;-63
2024/04/23 10:36:38;;;;;;;7.85;6.00;;;8.10;69.70;;;;;;5469827;26;20539;-63
2024/04/23 10:39:15;;;;;;;10.32;6.18;;;8.10;70.00;;;;;;5478827;26;19998;-64
2024/04/23 10:41:40;;;;;;;7.35;5.85;;;8.10;70.00;;;;;;5466381;26;20025;-64
2024/04/23 10:44:11;;;;;;;6.90;5.75;;;8.10;70.10;;;;;;5475462;26;19998;-63
2024/04/23 10:46:40;;;;;;;7.57;5.82;;;8.10;70.10;;;;;;5479563;26;20083;-63
2024/04/23 10:49:15;;;;;;;6.78;5.80;;;8.10;69.90;;;;;;5477487;26;20018;-63
2024/04/23 10:51:45;;;;;;;;;;;8.10;69.80;;;;;;5480816;26;20072;-62
2024/04/23 10:54:15;;;;;;;6.38;5.28;;;8.20;69.90;;;;;;5473575;26;20477;-63
2024/04/23 10:56:41;;;;;;;7.05;5.18;;;8.20;70.00;;;;;;5481981;26;20012;-63
2024/04/23 10:59:16;;;;;;;5.90;5.30;;;8.10;69.70;;;;;;5473149;26;19998;-62
2024/04/23 11:01:52;;;;;;;5.40;4.90;;;8.10;69.40;;;;;;5481490;26;19990;-64
2024/04/23 11:04:26;;;;;;;5.80;5.18;;;8.10;69.40;;;;;;5473318;26;20002;-63
2024/04/23 11:07:01;;;;;;;6.47;5.13;;;8.10;69.80;;;;;;5474119;26;20009;-63
2024/04/23 11:09:32;;;;;;;6.35;5.20;;;8.10;69.60;;;;;;5469226;26;20022;-63
2024/04/23 11:11:58;;;;;;;5.68;5.10;;;8.10;69.70;;;;;;5480625;26;19998;-63
2024/04/23 11:14:36;;;;;;;6.63;4.75;;;8.10;69.70;;;;;;5470911;26;19991;-63
2024/04/23 11:17:03;;;;;;;6.78;5.38;;;8.10;69.40;;;;;;5475681;26;19994;-63
2024/04/23 11:19:36;;;;;;;5.32;4.82;;;8.10;69.70;;;;;;5480443;26;20006;-62
2024/04/23 11:22:09;;;;;;;7.13;4.78;;;8.10;69.30;;;;;;5465863;26;20330;-63
2024/04/23 11:24:44;;;;;;;6.28;5.13;;;8.00;69.30;;;;;;5472414;26;19990;-63
2024/04/23 11:27:12;;;;;;;8.00;4.80;;;8.00;69.40;;;;;;5476488;26;19998;-63
2024/04/23 11:29:42;;;;;;;5.43;4.88;;;7.90;69.30;;;;;;5468956;26;19998;-63
2024/04/23 11:32:08;;;;;;;6.32;4.95;;;7.90;69.50;;;;;;5468036;26;20067;-62
2024/04/23 11:34:38;;;;;;;5.57;5.03;;;7.80;70.40;;;;;;5442721;26;20296;-63
2024/04/23 11:37:04;;;;;;;5.07;4.57;;;7.80;69.90;;;;;;5477029;26;20445;-63
2024/04/23 11:39:31;;;;;;;6.30;4.72;;;7.80;70.00;;;;;;5476135;26;20020;-63
2024/04/23 11:41:57;;;;;;;5.07;4.57;;;7.70;70.00;;;;;;5470120;26;20465;-63
2024/04/23 11:44:27;;;;;;;4.70;4.18;;;7.80;70.10;;;;;;5473391;26;20009;-64
2024/04/23 11:46:59;;;;;;;5.07;4.57;;;7.70;70.10;;;;;;5477114;26;19995;-63
2024/04/23 11:49:28;;;;;;;4.80;4.30;;;7.80;70.20;;;;;;5468758;26;20457;-63
2024/04/23 11:51:54;;;;;;;4.95;4.50;;;7.70;70.20;;;;;;5475740;26;19994;-64
2024/04/23 11:54:26;;;;;;;4.50;4.10;;;7.70;70.30;;;;;;5467932;26;19998;-63
2024/04/23 11:56:52;;;;;;;6.20;4.82;;;7.70;70.40;;;;;;5478303;26;19990;-62
2024/04/23 11:59:22;;;;;;;5.30;4.72;;;7.70;70.30;;;;;;5471720;26;19998;-63
2024/04/23 12:01:48;;;;;;;6.28;4.40;;;7.70;70.30;;;;;;5471506;26;20016;-63
2024/04/23 12:04:16;;;;;;;6.10;4.53;;;7.70;70.60;;;;;;5469944;26;19995;-63
2024/04/23 12:06:44;;;;;;;7.07;4.95;;;7.70;70.60;;;;;;5468156;26;19994;-63
2024/04/23 12:09:13;;;;;;;5.40;4.88;;;7.80;70.70;;;;;;5466741;26;20002;-63
2024/04/23 12:11:40;;;;;;;5.38;4.80;;;7.80;70.80;;;;;;5476833;26;19990;-63
2024/04/23 12:14:10;;;;;;;5.50;4.90;;;7.80;70.90;;;;;;5465280;26;20358;-61
2024/04/23 12:16:40;;;;;;;6.50;5.45;;;7.80;71.00;;;;;;5475056;26;20009;-64
2024/04/23 12:19:06;;;;;;;7.95;5.30;;;7.80;71.00;;;;;;5468810;26;20005;-61
2024/04/23 12:21:32;;;;;;;6.50;5.20;;;7.80;71.00;;;;;;5472132;26;20002;-62
2024/04/23 12:23:59;;;;;;;6.70;5.53;;;7.80;70.80;;;;;;5467153;26;19994;-63
2024/04/23 12:26:24;;;;;;;6.00;5.32;;;7.80;70.80;;;;;;5461535;26;20009;-63
2024/04/23 12:28:52;;;;;;;5.75;5.25;;;7.80;70.90;;;;;;5460006;26;20110;-63
2024/04/23 12:31:18;;;;;;;5.70;5.00;;;7.80;71.10;;;;;;5464754;26;20098;-64
2024/04/23 12:33:43;;;;;;;9.18;6.70;;;7.80;71.20;;;;;;5483705;26;20457;-62
2024/04/23 12:36:11;;;;;;;6.63;5.75;;;7.80;71.00;;;;;;5454991;26;20003;-63
2024/04/23 12:38:46;;;;;;;5.85;4.90;;;7.80;70.90;;;;;;5443734;26;20070;-63
2024/04/23 12:41:14;;;;;;;5.05;4.55;;;7.80;70.70;;;;;;5467874;26;20005;-64
2024/04/23 12:43:42;;;;;;;5.95;4.82;;;7.80;70.80;;;;;;5466552;26;19999;-63
2024/04/23 12:46:10;;;;;;;5.75;4.72;;;7.80;71.00;;;;;;5461623;26;20490;-63
2024/04/23 12:48:36;;;;;;;5.30;4.80;;;7.80;71.30;;;;;;5475501;26;20020;-63
2024/04/23 12:51:02;;;;;;;6.28;4.63;;;7.80;71.40;;;;;;5478444;26;19998;-63
2024/04/23 12:53:27;;;;;;;6.57;4.70;;;7.80;71.40;;;;;;5481413;26;20080;-62
2024/04/23 12:55:53;;;;;;;6.47;4.45;;;7.80;71.20;;;;;;5477685;26;20005;-63
2024/04/23 12:58:19;;;;;;;4.50;4.03;;;7.80;71.20;;;;;;5470241;26;20510;-63
2024/04/23 13:00:44;;;;;;;4.30;3.92;;;7.80;71.10;;;;;;5475151;26;20009;-63
2024/04/23 13:03:10;;;;;;;5.05;4.53;;;7.80;71.00;;;;;;5480570;26;20006;-63